createdAt,value
2022-12-31T00:00:46.560Z,13.30
2022-12-31T00:03:13.488Z,13.26
2022-12-31T00:05:40.311Z,13.02
2022-12-31T00:08:06.932Z,13.15
2022-12-31T00:10:35.285Z,13.04
2022-12-31T00:13:02.068Z,13.14
2022-12-31T00:15:28.880Z,13.22
2022-12-31T00:17:55.423Z,13.24
2022-12-31T00:20:22.018Z,13.26
2022-12-31T00:22:48.518Z,13.26
2022-12-31T00:25:15.284Z,13.25
2022-12-31T00:27:43.175Z,13.28
2022-12-31T00:30:10.976Z,13.20
2022-12-31T00:32:37.515Z,13.19
2022-12-31T00:35:04.954Z,13.20
2022-12-31T00:37:31.501Z,13.16
2022-12-31T00:39:58.242Z,13.18
2022-12-31T00:42:24.837Z,13.31
2022-12-31T00:44:52.823Z,13.39
2022-12-31T00:47:19.367Z,13.43
2022-12-31T00:49:45.947Z,13.45
2022-12-31T00:52:12.527Z,13.41
2022-12-31T00:54:39.202Z,13.44
2022-12-31T00:57:05.728Z,13.50
2022-12-31T00:59:32.304Z,13.34
2022-12-31T01:02:00.384Z,13.64
2022-12-31T01:04:27.156Z,13.71
2022-12-31T01:06:53.738Z,13.76
2022-12-31T01:09:20.319Z,13.83
2022-12-31T01:11:49.649Z,13.92
2022-12-31T01:14:18.547Z,14.02
2022-12-31T01:16:46.887Z,14.10
2022-12-31T01:19:17.449Z,14.26
2022-12-31T01:21:45.657Z,14.36
2022-12-31T01:24:13.135Z,14.43
2022-12-31T01:26:40.328Z,14.50
2022-12-31T01:29:07.869Z,14.60
2022-12-31T01:31:35.320Z,14.67
2022-12-31T01:34:02.308Z,14.67
2022-12-31T01:36:32.864Z,14.75
2022-12-31T01:39:01.188Z,14.84
2022-12-31T01:41:29.788Z,14.82
2022-12-31T01:43:59.609Z,14.87
2022-12-31T01:46:33.522Z,14.86
2022-12-31T01:49:03.229Z,15.01
2022-12-31T01:51:33.706Z,15.09
2022-12-31T01:54:02.648Z,15.05
2022-12-31T01:56:29.335Z,15.12
2022-12-31T01:58:57.482Z,15.10
2022-12-31T02:01:27.813Z,15.15
2022-12-31T02:03:56.331Z,15.18
2022-12-31T02:06:28.908Z,15.21
2022-12-31T02:08:58.247Z,15.26
2022-12-31T02:11:29.604Z,15.22
2022-12-31T02:14:00.472Z,15.21
2022-12-31T02:16:34.987Z,15.26
2022-12-31T02:19:15.486Z,15.28
2022-12-31T02:21:57.731Z,15.28
2022-12-31T02:24:38.802Z,15.28
2022-12-31T02:27:10.486Z,15.25
2022-12-31T02:29:57.636Z,15.30
2022-12-31T02:32:35.485Z,15.34
2022-12-31T02:35:08.204Z,15.38
2022-12-31T02:37:37.675Z,15.52
2022-12-31T02:40:07.713Z,15.51
2022-12-31T02:42:34.397Z,15.39
2022-12-31T02:45:01.178Z,15.52
2022-12-31T02:47:43.320Z,15.57
2022-12-31T02:50:27.624Z,15.58
2022-12-31T02:53:03.563Z,15.31
2022-12-31T02:55:38.220Z,15.64
2022-12-31T02:58:13.262Z,15.67
2022-12-31T03:00:45.087Z,15.69
2022-12-31T03:03:13.344Z,15.70
2022-12-31T03:05:43.146Z,15.58
2022-12-31T03:08:09.798Z,15.78
2022-12-31T03:10:36.899Z,15.78
2022-12-31T03:13:03.790Z,15.81
2022-12-31T03:15:32.555Z,15.76
2022-12-31T03:18:01.805Z,15.78
2022-12-31T03:20:32.870Z,15.80
2022-12-31T03:22:59.874Z,15.86
2022-12-31T03:25:26.505Z,15.84
2022-12-31T03:27:53.467Z,15.84
2022-12-31T03:30:22.187Z,15.83
2022-12-31T03:32:50.202Z,15.59
2022-12-31T03:35:19.047Z,15.88
2022-12-31T03:37:47.902Z,15.85
2022-12-31T03:40:15.630Z,15.86
2022-12-31T03:42:42.536Z,15.82
2022-12-31T03:45:10.705Z,15.79
2022-12-31T03:47:37.420Z,15.63
2022-12-31T03:50:05.333Z,15.74
2022-12-31T03:52:31.998Z,15.75
2022-12-31T03:55:00.418Z,15.80
2022-12-31T03:57:27.164Z,15.75
2022-12-31T03:59:53.696Z,15.82
2022-12-31T04:02:26.312Z,15.84
2022-12-31T04:04:55.073Z,15.90
2022-12-31T04:07:21.621Z,15.87
2022-12-31T04:09:48.232Z,15.87
2022-12-31T04:12:16.192Z,15.87
2022-12-31T04:14:42.818Z,15.82
2022-12-31T04:17:09.525Z,15.84
2022-12-31T04:19:36.104Z,15.80
2022-12-31T04:22:02.653Z,15.85
2022-12-31T04:24:29.327Z,15.87
2022-12-31T04:26:57.857Z,15.88
2022-12-31T04:29:27.568Z,15.88
2022-12-31T04:31:54.552Z,15.89
2022-12-31T04:34:21.552Z,15.82
2022-12-31T04:36:48.115Z,15.88
2022-12-31T04:39:14.851Z,15.82
2022-12-31T04:41:41.408Z,15.87
2022-12-31T04:44:09.199Z,15.85
2022-12-31T04:46:37.082Z,15.84
2022-12-31T04:49:03.895Z,15.84
2022-12-31T04:51:31.461Z,15.85
2022-12-31T04:53:58.743Z,15.90
2022-12-31T04:56:26.626Z,15.69
2022-12-31T04:58:53.669Z,15.88
2022-12-31T05:01:21.011Z,16.02
2022-12-31T05:03:49.371Z,15.97
2022-12-31T05:06:17.570Z,15.92
2022-12-31T05:08:45.000Z,15.96
2022-12-31T05:11:12.243Z,16.03
2022-12-31T05:13:39.277Z,16.05
2022-12-31T05:16:07.258Z,15.98
2022-12-31T05:18:34.582Z,16.05
2022-12-31T05:21:02.757Z,16.11
2022-12-31T05:23:29.559Z,16.11
2022-12-31T05:25:57.030Z,16.17
2022-12-31T05:28:23.625Z,16.14
2022-12-31T05:30:50.596Z,16.18
2022-12-31T05:33:17.698Z,16.00
2022-12-31T05:35:44.730Z,16.22
2022-12-31T05:38:13.017Z,16.26
2022-12-31T05:40:39.610Z,16.29
2022-12-31T05:43:06.574Z,16.35
2022-12-31T05:45:33.110Z,16.26
2022-12-31T05:47:59.751Z,16.30
2022-12-31T05:50:26.341Z,16.34
2022-12-31T05:52:56.353Z,16.36
2022-12-31T05:55:24.506Z,16.40
2022-12-31T05:57:51.151Z,16.48
2022-12-31T06:00:17.980Z,16.47
2022-12-31T06:02:45.392Z,16.48
2022-12-31T06:05:12.713Z,16.53
2022-12-31T06:07:39.346Z,16.45
2022-12-31T06:10:06.805Z,16.37
2022-12-31T06:12:34.914Z,16.50
2022-12-31T06:15:01.617Z,16.48
2022-12-31T06:17:29.747Z,16.48
2022-12-31T06:19:56.271Z,16.54
2022-12-31T06:22:22.896Z,16.50
2022-12-31T06:24:49.543Z,16.51
2022-12-31T06:27:16.112Z,16.49
2022-12-31T06:29:44.161Z,16.58
2022-12-31T06:32:10.702Z,16.56
2022-12-31T06:34:37.230Z,16.54
2022-12-31T06:37:03.751Z,16.53
2022-12-31T06:39:30.311Z,16.54
2022-12-31T06:41:56.890Z,16.51
2022-12-31T06:44:23.455Z,16.54
2022-12-31T06:46:51.444Z,16.54
2022-12-31T06:49:18.322Z,16.58
2022-12-31T06:51:45.272Z,16.57
2022-12-31T06:54:12.143Z,16.59
2022-12-31T06:56:39.509Z,16.51
2022-12-31T06:59:06.539Z,16.58
2022-12-31T07:01:49.203Z,16.70
2022-12-31T07:04:41.592Z,16.65
2022-12-31T07:07:16.972Z,16.65
2022-12-31T07:09:55.050Z,16.66
2022-12-31T07:12:36.114Z,16.69
2022-12-31T07:15:11.129Z,16.63
2022-12-31T07:17:47.777Z,16.70
2022-12-31T07:20:18.243Z,16.69
2022-12-31T07:22:45.743Z,16.78
2022-12-31T07:25:14.638Z,16.78
2022-12-31T07:28:02.592Z,16.73
2022-12-31T07:30:39.731Z,16.74
2022-12-31T07:33:29.955Z,16.48
2022-12-31T07:36:07.989Z,16.74
2022-12-31T07:38:40.401Z,16.70
2022-12-31T07:41:16.164Z,16.77
2022-12-31T07:43:56.080Z,16.72
2022-12-31T07:46:28.536Z,16.78
2022-12-31T07:48:55.801Z,16.78
2022-12-31T07:51:24.451Z,16.85
2022-12-31T07:53:51.052Z,16.79
2022-12-31T07:56:17.665Z,16.82
2022-12-31T07:59:07.879Z,16.82
2022-12-31T08:01:41.603Z,16.83
2022-12-31T08:04:17.999Z,16.81
2022-12-31T08:06:54.061Z,16.83
2022-12-31T08:09:32.129Z,16.87
2022-12-31T08:12:01.081Z,16.83
2022-12-31T08:14:29.337Z,16.89
2022-12-31T08:16:57.191Z,16.89
2022-12-31T08:19:26.032Z,16.90
2022-12-31T08:22:09.533Z,16.97
2022-12-31T08:24:47.647Z,16.92
2022-12-31T08:27:23.774Z,16.91
2022-12-31T08:29:59.029Z,16.84
2022-12-31T08:32:32.515Z,16.80
2022-12-31T08:35:06.313Z,16.99
2022-12-31T08:37:38.951Z,16.92
2022-12-31T08:40:16.134Z,17.02
2022-12-31T08:42:59.850Z,16.99
2022-12-31T08:45:31.863Z,17.01
2022-12-31T08:48:02.932Z,17.04
2022-12-31T08:50:30.263Z,17.02
2022-12-31T08:52:59.168Z,17.01
2022-12-31T08:55:26.467Z,16.89
2022-12-31T08:58:08.373Z,17.03
2022-12-31T09:00:36.892Z,16.84
2022-12-31T09:03:29.851Z,16.97
2022-12-31T09:06:04.614Z,17.01
2022-12-31T09:08:47.344Z,17.03
2022-12-31T09:11:23.211Z,17.13
2022-12-31T09:14:19.473Z,17.11
2022-12-31T09:17:00.374Z,17.06
2022-12-31T09:19:27.316Z,17.03
2022-12-31T09:21:54.717Z,17.04
2022-12-31T09:24:23.589Z,17.12
2022-12-31T09:27:00.856Z,17.15
2022-12-31T09:29:39.900Z,17.19
2022-12-31T09:32:17.248Z,17.02
2022-12-31T09:34:52.993Z,17.14
2022-12-31T09:37:36.153Z,17.19
2022-12-31T09:40:28.370Z,17.14
2022-12-31T09:43:20.367Z,17.20
2022-12-31T09:46:09.816Z,17.21
2022-12-31T09:48:58.090Z,17.23
2022-12-31T09:51:30.393Z,17.21
2022-12-31T09:54:16.430Z,17.17
2022-12-31T09:56:52.937Z,17.26
2022-12-31T09:59:30.552Z,17.24
2022-12-31T10:02:02.984Z,17.28
2022-12-31T10:04:52.495Z,17.25
2022-12-31T10:07:31.714Z,17.25
2022-12-31T10:10:06.481Z,17.19
2022-12-31T10:13:22.032Z,17.27
2022-12-31T10:16:11.816Z,17.19
2022-12-31T10:18:54.357Z,17.23
2022-12-31T10:21:40.252Z,17.27
2022-12-31T10:24:28.728Z,17.28
2022-12-31T10:27:10.867Z,17.24
2022-12-31T10:29:45.168Z,17.14
2022-12-31T10:32:19.014Z,17.30
2022-12-31T10:35:00.811Z,17.37
2022-12-31T10:37:31.392Z,17.37
2022-12-31T10:40:15.746Z,17.45
2022-12-31T10:43:28.290Z,17.49
2022-12-31T10:46:41.546Z,17.50
2022-12-31T10:49:35.178Z,17.55
2022-12-31T10:52:38.199Z,17.54
2022-12-31T10:55:47.877Z,17.58
2022-12-31T10:58:48.869Z,17.62
2022-12-31T11:01:26.173Z,17.61
2022-12-31T11:04:27.983Z,17.64
2022-12-31T11:07:24.038Z,17.71
2022-12-31T11:10:13.293Z,17.74
2022-12-31T11:13:02.628Z,17.70
2022-12-31T11:15:59.644Z,17.71
2022-12-31T11:18:36.391Z,17.56
2022-12-31T11:21:16.205Z,17.71
2022-12-31T11:23:52.329Z,17.72
2022-12-31T11:26:29.970Z,17.75
2022-12-31T11:29:13.912Z,17.74
2022-12-31T11:32:01.565Z,17.72
2022-12-31T11:34:59.374Z,17.68
2022-12-31T11:37:40.742Z,17.63
2022-12-31T11:40:33.640Z,17.71
2022-12-31T11:43:04.644Z,17.63
2022-12-31T11:45:51.498Z,17.78
2022-12-31T11:48:30.643Z,17.72
2022-12-31T11:51:15.153Z,17.56
2022-12-31T11:54:09.603Z,17.64
2022-12-31T11:56:40.413Z,17.67
2022-12-31T11:59:15.737Z,17.58
2022-12-31T12:01:55.076Z,17.62
2022-12-31T12:04:21.807Z,17.51
2022-12-31T12:06:50.203Z,17.57
2022-12-31T12:09:28.857Z,17.60
2022-12-31T12:11:59.681Z,17.61
2022-12-31T12:14:32.000Z,17.55
2022-12-31T12:17:05.088Z,17.53
2022-12-31T12:19:34.754Z,17.50
2022-12-31T12:22:12.441Z,17.52
2022-12-31T12:24:39.326Z,17.53
2022-12-31T12:27:21.078Z,17.43
2022-12-31T12:29:48.725Z,17.55
2022-12-31T12:32:20.390Z,17.50
2022-12-31T12:34:49.968Z,17.44
2022-12-31T12:37:30.170Z,17.44
2022-12-31T12:39:58.666Z,17.53
2022-12-31T12:42:25.335Z,17.52
2022-12-31T12:45:01.580Z,17.54
2022-12-31T12:47:28.793Z,17.56
2022-12-31T12:49:55.786Z,17.49
2022-12-31T12:52:48.237Z,17.53
2022-12-31T12:55:20.952Z,17.50
2022-12-31T12:57:57.757Z,17.50
2022-12-31T13:00:29.434Z,17.54
2022-12-31T13:03:29.336Z,17.56
2022-12-31T13:06:21.283Z,17.62
2022-12-31T13:09:06.531Z,17.58
2022-12-31T13:11:40.683Z,17.57
2022-12-31T13:14:18.703Z,17.62
2022-12-31T13:16:53.262Z,17.60
2022-12-31T13:19:29.082Z,17.52
2022-12-31T13:22:03.193Z,17.53
2022-12-31T13:24:46.413Z,17.50
2022-12-31T13:27:18.993Z,17.36
2022-12-31T13:29:48.047Z,17.37
2022-12-31T13:32:18.706Z,17.49
2022-12-31T13:34:48.474Z,17.42
2022-12-31T13:37:25.588Z,17.46
2022-12-31T13:39:59.556Z,17.52
2022-12-31T13:42:34.813Z,17.49
2022-12-31T13:45:04.278Z,17.51
2022-12-31T13:47:35.706Z,17.42
2022-12-31T13:50:14.184Z,17.42
2022-12-31T13:52:48.553Z,17.59
2022-12-31T13:55:21.277Z,17.59
2022-12-31T13:57:52.647Z,17.55
2022-12-31T14:00:22.762Z,17.51
2022-12-31T14:02:59.171Z,17.45
2022-12-31T14:05:32.135Z,17.49
2022-12-31T14:08:01.006Z,17.53
2022-12-31T14:10:40.308Z,17.52
2022-12-31T14:13:20.411Z,17.49
2022-12-31T14:15:56.711Z,17.45
2022-12-31T14:18:31.143Z,17.43
2022-12-31T14:21:07.010Z,17.44
2022-12-31T14:23:39.957Z,17.39
2022-12-31T14:26:15.053Z,17.33
2022-12-31T14:28:47.667Z,17.51
2022-12-31T14:31:27.001Z,17.36
2022-12-31T14:34:03.616Z,17.38
2022-12-31T14:36:40.568Z,17.48
2022-12-31T14:39:29.120Z,17.49
2022-12-31T14:42:09.026Z,17.45
2022-12-31T14:44:48.862Z,17.47
2022-12-31T14:47:27.219Z,17.49
2022-12-31T14:50:03.321Z,17.40
2022-12-31T14:52:32.031Z,17.50
2022-12-31T14:55:00.830Z,17.45
2022-12-31T14:57:54.343Z,17.43
2022-12-31T15:00:29.068Z,17.35
2022-12-31T15:02:57.652Z,17.31
2022-12-31T15:05:26.126Z,17.24
2022-12-31T15:08:12.956Z,16.91
2022-12-31T15:10:52.739Z,17.16
2022-12-31T15:13:37.206Z,17.15
2022-12-31T15:16:18.506Z,17.08
2022-12-31T15:19:10.797Z,17.03
2022-12-31T15:21:55.665Z,17.11
2022-12-31T15:24:25.019Z,17.04
2022-12-31T15:26:53.944Z,16.84
2022-12-31T15:29:28.462Z,17.02
2022-12-31T15:31:57.260Z,16.84
2022-12-31T15:34:26.861Z,16.99
2022-12-31T15:36:55.932Z,16.93
2022-12-31T15:39:26.005Z,16.89
2022-12-31T15:42:36.066Z,16.92
2022-12-31T15:44:48.760Z,16.82
2022-12-31T15:47:20.625Z,16.86
2022-12-31T15:49:47.947Z,16.75
2022-12-31T15:52:20.794Z,16.72
2022-12-31T15:54:50.363Z,16.79
2022-12-31T15:57:20.663Z,16.66
2022-12-31T15:59:48.713Z,16.77
2022-12-31T16:02:21.005Z,16.73
2022-12-31T16:04:48.735Z,16.70
2022-12-31T16:07:15.883Z,16.70
2022-12-31T16:09:43.124Z,16.67
2022-12-31T16:12:12.068Z,16.65
2022-12-31T16:14:42.348Z,16.61
2022-12-31T16:17:26.243Z,16.57
2022-12-31T16:19:52.898Z,16.49
2022-12-31T16:22:26.245Z,16.55
2022-12-31T16:27:40.604Z,16.36
2022-12-31T16:30:18.809Z,16.33
2022-12-31T16:32:48.402Z,16.37
2022-12-31T16:35:24.064Z,16.23
2022-12-31T16:38:01.271Z,16.19
2022-12-31T16:40:28.182Z,16.15
2022-12-31T16:42:54.684Z,16.19
2022-12-31T16:45:31.193Z,16.09
2022-12-31T16:48:07.832Z,16.05
2022-12-31T16:50:37.932Z,16.01
2022-12-31T16:53:06.530Z,16.02
2022-12-31T16:55:34.481Z,15.98
2022-12-31T16:58:06.907Z,15.98
2022-12-31T17:00:34.920Z,15.94
2022-12-31T17:03:09.068Z,15.93
2022-12-31T17:05:55.274Z,15.93
2022-12-31T17:08:24.789Z,15.86
2022-12-31T17:10:51.348Z,15.84
2022-12-31T17:13:29.417Z,15.92
2022-12-31T17:15:57.625Z,15.83
2022-12-31T17:18:28.518Z,15.86
2022-12-31T17:21:04.073Z,15.94
2022-12-31T17:23:34.603Z,15.85
2022-12-31T17:26:13.566Z,15.92
2022-12-31T17:28:44.933Z,15.95
2022-12-31T17:31:34.053Z,15.94
2022-12-31T17:34:22.090Z,15.87
2022-12-31T17:36:56.875Z,15.92
2022-12-31T17:39:24.317Z,15.87
2022-12-31T17:41:55.430Z,15.89
2022-12-31T17:44:26.028Z,15.84
2022-12-31T17:46:53.460Z,15.76
2022-12-31T17:49:24.761Z,16.00
2022-12-31T17:51:51.359Z,15.98
2022-12-31T17:54:19.042Z,15.97
2022-12-31T17:56:46.159Z,15.65
2022-12-31T17:59:16.699Z,15.81
2022-12-31T18:01:43.738Z,15.81
2022-12-31T18:04:12.133Z,15.80
2022-12-31T18:06:40.255Z,15.73
2022-12-31T18:09:06.939Z,15.54
2022-12-31T18:11:35.896Z,15.60
2022-12-31T18:14:02.510Z,15.56
2022-12-31T18:16:29.187Z,15.46
2022-12-31T18:18:58.503Z,15.48
2022-12-31T18:21:29.005Z,15.49
2022-12-31T18:26:24.209Z,15.40
2022-12-31T18:28:51.489Z,15.40
2022-12-31T18:31:20.973Z,15.31
2022-12-31T18:33:49.044Z,15.31
2022-12-31T18:36:17.494Z,15.16
2022-12-31T18:38:44.067Z,15.23
2022-12-31T18:41:16.696Z,15.29
2022-12-31T18:43:43.948Z,15.26
2022-12-31T18:46:13.101Z,15.25
2022-12-31T18:48:39.876Z,15.27
2022-12-31T18:51:06.409Z,15.30
2022-12-31T18:53:33.016Z,15.31
2022-12-31T18:55:59.540Z,15.34
2022-12-31T18:58:27.715Z,15.40
2022-12-31T19:00:54.482Z,15.38
2022-12-31T19:03:24.217Z,15.35
2022-12-31T19:05:51.501Z,15.36
2022-12-31T19:08:18.386Z,15.37
2022-12-31T19:10:45.519Z,15.43
2022-12-31T19:13:13.302Z,15.43
2022-12-31T19:15:43.521Z,15.53
2022-12-31T19:18:10.348Z,15.59
2022-12-31T19:20:38.051Z,15.66
2022-12-31T19:23:04.971Z,15.73
2022-12-31T19:25:33.534Z,15.75
2022-12-31T19:28:00.731Z,15.76
2022-12-31T19:30:29.589Z,15.81
2022-12-31T19:32:57.692Z,15.68
2022-12-31T19:35:24.837Z,15.87
2022-12-31T19:37:53.676Z,15.78
2022-12-31T19:40:23.229Z,15.92
2022-12-31T19:42:51.014Z,15.90
2022-12-31T19:45:19.300Z,15.84
2022-12-31T19:47:46.739Z,15.70
2022-12-31T19:50:18.156Z,15.81
2022-12-31T19:52:46.388Z,15.82
2022-12-31T19:55:15.523Z,15.75
2022-12-31T19:57:42.850Z,15.77
2022-12-31T20:00:11.209Z,15.72
2022-12-31T20:02:41.375Z,15.77
2022-12-31T20:05:08.741Z,15.81
2022-12-31T20:07:37.166Z,15.70
2022-12-31T20:10:05.269Z,15.76
2022-12-31T20:12:32.373Z,15.75
2022-12-31T20:14:58.983Z,15.76
2022-12-31T20:17:25.678Z,15.58
2022-12-31T20:19:52.246Z,15.68
2022-12-31T20:22:19.280Z,15.69
2022-12-31T20:24:47.185Z,15.67
2022-12-31T20:27:18.468Z,15.67
2022-12-31T20:29:45.365Z,15.66
2022-12-31T20:32:11.907Z,15.67
2022-12-31T20:34:38.502Z,15.65
2022-12-31T20:37:05.029Z,15.65
2022-12-31T20:39:32.499Z,15.71
2022-12-31T20:42:00.396Z,15.70
2022-12-31T20:44:27.196Z,15.76
2022-12-31T20:46:53.926Z,15.81
2022-12-31T20:49:37.258Z,15.80
2022-12-31T20:52:07.092Z,15.82
2022-12-31T20:54:33.627Z,15.80
2022-12-31T20:57:01.541Z,15.85
2022-12-31T20:59:28.038Z,15.79
2022-12-31T21:02:20.489Z,15.82
2022-12-31T21:04:41.505Z,15.74
2022-12-31T21:07:08.172Z,15.85
2022-12-31T21:09:35.010Z,15.88
2022-12-31T21:12:02.859Z,15.90
2022-12-31T21:14:29.463Z,15.86
2022-12-31T21:16:55.951Z,15.86
2022-12-31T21:19:22.588Z,15.86
2022-12-31T21:21:49.121Z,15.83
2022-12-31T21:24:21.766Z,15.77
2022-12-31T21:26:50.330Z,15.81
2022-12-31T21:29:18.240Z,15.85
2022-12-31T21:31:44.805Z,15.75
2022-12-31T21:34:11.505Z,15.82
2022-12-31T21:36:38.108Z,15.81
2022-12-31T21:39:04.820Z,15.81
2022-12-31T21:41:33.651Z,15.78
2022-12-31T21:44:01.444Z,15.74
2022-12-31T21:46:29.457Z,15.71
2022-12-31T21:48:56.671Z,15.74
2022-12-31T21:51:23.483Z,15.73
2022-12-31T21:53:50.168Z,15.72
2022-12-31T21:56:17.087Z,15.68
2022-12-31T21:58:45.597Z,15.66
2022-12-31T22:01:17.189Z,15.60
2022-12-31T22:03:45.423Z,15.66
2022-12-31T22:06:14.423Z,15.63
2022-12-31T22:08:43.148Z,15.65
2022-12-31T22:11:10.989Z,15.64
2022-12-31T22:13:38.351Z,15.67
2022-12-31T22:16:06.286Z,15.63
2022-12-31T22:18:34.076Z,15.61
2022-12-31T22:21:04.459Z,15.62
2022-12-31T22:23:32.361Z,15.62
2022-12-31T22:25:59.286Z,15.64
2022-12-31T22:28:41.378Z,15.61
2022-12-31T22:31:12.307Z,15.60
2022-12-31T22:33:38.913Z,15.65
2022-12-31T22:36:10.580Z,15.61
2022-12-31T22:38:37.044Z,15.59
2022-12-31T22:41:05.744Z,15.66
2022-12-31T22:43:34.239Z,15.66
2022-12-31T22:46:06.275Z,15.69
2022-12-31T22:48:32.912Z,15.73
2022-12-31T22:50:59.512Z,15.68
2022-12-31T22:53:27.683Z,15.69
2022-12-31T22:55:54.563Z,15.69
2022-12-31T22:58:21.345Z,15.71
2022-12-31T23:00:48.014Z,15.70
2022-12-31T23:03:14.783Z,15.62
2022-12-31T23:05:41.399Z,15.64
2022-12-31T23:08:18.687Z,15.68
2022-12-31T23:10:50.211Z,15.67
2022-12-31T23:13:16.758Z,15.67
2022-12-31T23:15:44.533Z,15.69
2022-12-31T23:18:11.081Z,15.66
2022-12-31T23:20:38.032Z,15.69
2022-12-31T23:23:05.671Z,15.69
2022-12-31T23:25:33.073Z,15.69
2022-12-31T23:28:01.526Z,15.69
2022-12-31T23:30:28.377Z,15.70
2022-12-31T23:32:55.020Z,15.66
2022-12-31T23:35:22.036Z,15.61
2022-12-31T23:37:48.618Z,15.59
2022-12-31T23:40:20.956Z,15.60
2022-12-31T23:42:48.413Z,15.57
2022-12-31T23:45:16.585Z,15.50
2022-12-31T23:47:43.230Z,15.55
2022-12-31T23:50:09.984Z,15.53
2022-12-31T23:52:36.532Z,15.56
2022-12-31T23:55:03.305Z,15.53
2022-12-31T23:57:29.895Z,15.54
2022-12-31T23:59:56.403Z,15.50
